Hulberton, New York
Current Conditions -  °F | °C
As of 1:54 PM on Thursday 23 Oct 2014 (Local Time) from KROC Reporting Station
Broken Clouds Broken Clouds  
Wind Chill: 56°   Ceiling: 6000
Heat Index: 56°   Visibility: 10mi
Dew Point: 39°   Wind: 15mph
Humidity: 53%   Direction: 330°NNW
Pressure: 30.02"   Gusts: 24mph
Location:  43.2139°N, 78.0559°W
Report Text: KROC 231754Z 33013G21KT 10SM FEW040 BKN060 13/04 A3002 RMK AO2 SLP171 T01330039 10133 20089 58020
Loading
Personal Weather Stations






























Interactive Weather Map
Tropical Storm Tracking
New forecast layout! Learn more

10-Day Weather Forecast

Advertisements
Track Severe Weather on mobile